Terminal Aerodrome Forecast
Issued by NWS Missoula, MT

Home | Current Version | Previous Version | Text Only | Print | Product List | Glossary On
Versions: 1 2 3 4 5 6 7 8 9 10 11 12 13 14 15 16 17 18 19
000
FTUS45 KMSO 221722
TAFBTM
TAF
KBTM 221722Z 2218/2318 24013G20KT P6SM VCSH SCT040 BKN100
     FM221900 29022G32KT P6SM VCSH BKN100
     FM222200 28025G38KT P6SM SCT100
     FM230300 30015G25KT P6SM BKN100
     FM230600 30009KT P6SM BKN150=

USA.gov is the U.S. government's official web portal to all federal, state and local government web resources and services.